Pagrindinis puslapis
METAR-TAF:

METAR-TAF

Oro uostai :

Sirtas, Turkija

platuma: 37-58-41N, ilguma: 41-50-21E, Aukštis: 610 m

Dabartinis oras

Ataskaita buvo paskelbta 39 minutes, ne 06:50 UTC
Vėjas 4 kt iš Vakarų/Pietvakarių, svyruoja nuo Pietų ir Vakarų
Temperatūra 29°C
Drėgmė 25%
Slėgis 1015 hPa
Matomumas 10 km arba daugiau
nėra debesų žemiau 1500 m ir nėra kamuolinių lietaus debesų

METAR: LTCL 140650Z 24004KT 180V280 CAVOK 29/07 Q1015

Laikas: 10:29 (07:29 UTC)

Prognozė

Ataskaita buvo paskelbta 2 valandos ir 49 minutes, ne 04:40 UTC
Prognozė galioja nuo 14 metu 06 UTC su 14 metu 15 UTC
Vėjas 2 kt nuo kintamojo kryptimis
Matomumas 10 km arba daugiau
nėra debesų žemiau 1500 m ir nėra kamuolinių lietaus debesų

TAF: LTCL 140440Z 1406/1415 VRB02KT CAVOK

Orai ataskaitas ir orų prognozės (METAR, TAF).

turimą stotys yra geltonos ir raudonos taškus žemėlapyje.

Perkelti pele per norėdami pamatyti stoties vardą.

Tada spustelėkite, norėdami matyti oro stebėjimo ir prognozės.

Norėdami pakeisti žemėlapį: spustelėkite ant žalios mygtukų su juodo kryžiaus žemyn,; žalią mygtuką su brūkšneliu, jei norite nutolinti; arba žalių rodyklių gretimoms žemėlapius.


METAR-TAF: